Map

Track Data

SID SEASON NUMBER BASIN SUBBASIN NAME ISO_TIME NATURE LAT LON WMO_WIND WMO_PRES WMO_AGENCY TRACK_TYPE DIST2LAND LANDFALL IFLAG USA_AGENCY USA_ATCF_ID USA_LAT USA_LON USA_RECORD USA_STATUS USA_WIND USA_PRES USA_SSHS USA_R34_NE USA_R34_SE USA_R34_SW USA_R34_NW USA_R50_NE USA_R50_SE USA_R50_SW USA_R50_NW USA_R64_NE USA_R64_SE USA_R64_SW USA_R64_NW USA_POCI USA_ROCI USA_RMW USA_EYE TOKYO_LAT TOKYO_LON TOKYO_GRADE TOKYO_WIND TOKYO_PRES TOKYO_R50_DIR TOKYO_R50_LONG TOKYO_R50_SHORT TOKYO_R30_DIR TOKYO_R30_LONG TOKYO_R30_SHORT TOKYO_LAND CMA_LAT CMA_LON CMA_CAT CMA_WIND CMA_PRES HKO_LAT HKO_LON HKO_CAT HKO_WIND HKO_PRES NEWDELHI_LAT NEWDELHI_LON NEWDELHI_GRADE NEWDELHI_WIND NEWDELHI_PRES NEWDELHI_CI NEWDELHI_DP NEWDELHI_POCI REUNION_LAT REUNION_LON REUNION_TYPE REUNION_WIND REUNION_PRES REUNION_TNUM REUNION_CI REUNION_RMW REUNION_R34_NE REUNION_R34_SE REUNION_R34_SW REUNION_R34_NW REUNION_R50_NE REUNION_R50_SE REUNION_R50_SW REUNION_R50_NW REUNION_R64_NE REUNION_R64_SE REUNION_R64_SW REUNION_R64_NW BOM_LAT BOM_LON BOM_TYPE BOM_WIND BOM_PRES BOM_TNUM BOM_CI BOM_RMW BOM_R34_NE BOM_R34_SE BOM_R34_SW BOM_R34_NW BOM_R50_NE BOM_R50_SE BOM_R50_SW BOM_R50_NW BOM_R64_NE BOM_R64_SE BOM_R64_SW BOM_R64_NW BOM_ROCI BOM_POCI BOM_EYE BOM_POS_METHOD BOM_PRES_METHOD NADI_LAT NADI_LON NADI_CAT NADI_WIND NADI_PRES WELLINGTON_LAT WELLINGTON_LON WELLINGTON_WIND WELLINGTON_PRES DS824_LAT DS824_LON DS824_STAGE DS824_WIND DS824_PRES TD9636_LAT TD9636_LON TD9636_STAGE TD9636_WIND TD9636_PRES TD9635_LAT TD9635_LON TD9635_WIND TD9635_PRES TD9635_ROCI NEUMANN_LAT NEUMANN_LON NEUMANN_CLASS NEUMANN_WIND NEUMANN_PRES MLC_LAT MLC_LON MLC_CLASS MLC_WIND MLC_PRES USA_GUST BOM_GUST BOM_GUST_PER REUNION_GUST REUNION_GUST_PER USA_SEAHGT USA_SEARAD_NE USA_SEARAD_SE USA_SEARAD_SW USA_SEARAD_NW STORM_SPEED STORM_DIR
1976028N10130 1976 9 WP MM NOT_NAMED 1976-01-28 00:00:00 TS 10.0000 130.000 main 426 405 __O___________ -1 10.0000 130.000 0 19 1006 5 258
1976028N10130 1976 9 WP MM NOT_NAMED 1976-01-28 03:00:00 TS 9.94752 129.755 main 402 370 __P___________ -1 9.94752 129.755 0 24 1004 5 259
1976028N10130 1976 9 WP MM NOT_NAMED 1976-01-28 06:00:00 TS 9.90000 129.500 main 370 338 __O___________ -1 9.90000 129.500 1 29 1003 5 260
1976028N10130 1976 9 WP MM NOT_NAMED 1976-01-28 09:00:00 TS 9.85751 129.235 main 338 314 __P___________ -1 9.85751 129.235 1 29 1003 5 259
1976028N10130 1976 9 WP MM NOT_NAMED 1976-01-28 12:00:00 TS 9.80000 129.000 main 314 290 __O___________ -1 9.80000 129.000 1 29 1003 4 251
1976028N10130 1976 9 WP MM NOT_NAMED 1976-01-28 15:00:00 TS 9.72248 128.828 main 290 269 __P___________ -1 9.72248 128.828 1 29 1003 6 213
1976028N10130 1976 9 WP MM NOT_NAMED 1976-01-28 18:00:00 TS 9.28000 128.660 main 269 242 __OO__________ -1 9.60000 128.700 1 29 1003 8.00000 128.500 TD 25 1008 8 201
1976028N10130 1976 9 WP MM NOT_NAMED 1976-01-28 21:00:00 TS 8.97832 128.537 main 242 227 __PP__________ -1 9.39998 128.600 1 29 1003 8.13500 128.410 TD 25 1006 5 208
1976028N10130 1976 9 WP MM NOT_NAMED 1976-01-29 00:00:00 TS 8.81429 128.414 main 227 216 __OO__________ -1 9.20000 128.500 1 29 1003 8.30000 128.300 TD 25 1004 3 238
1976028N10130 1976 9 WP MM NOT_NAMED 1976-01-29 03:00:00 TS 8.80376 128.254 main 216 195 __PP__________ -1 9.10001 128.350 1 29 1003 8.50750 128.158 TD 25 1004 3 277
1976028N10130 1976 9 WP MM NOT_NAMED 1976-01-29 06:00:00 TS 8.85000 128.100 main 198 184 __OO__________ -1 9.00000 128.200 1 29 1003 8.70000 128.000 TD 25 1004 3 272
1976028N10130 1976 9 WP MM NOT_NAMED 1976-01-29 09:00:00 TS 8.81499 127.975 main 184 174 __PP__________ -1 8.80749 128.092 1 29 1003 8.82248 127.857 TD 25 1004 3 248
1976028N10130 1976 9 WP MM NOT_NAMED 1976-01-29 12:00:00 TS 8.75000 127.850 main 174 149 __OO__________ -1 8.60000 128.000 1 29 1003 8.90000 127.700 TD 25 1004 3 253
1976028N10130 1976 9 WP MM NOT_NAMED 1976-01-29 15:00:00 TS 8.73375 127.700 main 149 139 __PP__________ -1 8.46500 127.893 1 29 1003 9.00250 127.508 TD 25 1004 3 251
1976028N10130 1976 9 WP MM NOT_NAMED 1976-01-29 18:00:00 TS 8.65000 127.550 main 139 110 __OO__________ -1 8.30000 127.800 1 29 1003 9.00000 127.300 TD 25 1004 5 225
1976028N10130 1976 9 WP MM NOT_NAMED 1976-01-29 21:00:00 TS 8.41250 127.380 main 110 89 __PP__________ -1 8.01500 127.727 1 29 1003 8.81001 127.032 TD 25 1003 6 204
1976028N10130 1976 9 WP MM NOT_NAMED 1976-01-30 00:00:00 TS 8.10000 127.300 main 89 80 __OO__________ -1 7.70000 127.700 1 29 1003 8.50000 126.900 TD 25 1002 6 178
1976028N10130 1976 9 WP MM NOT_NAMED 1976-01-30 03:00:00 TS 7.77749 127.386 main 88 88 __PP__________ -1 7.41998 127.705 1 29 1003 8.13500 127.068 TD 25 1002 7 154
1976028N10130 1976 9 WP MM NOT_NAMED 1976-01-30 06:00:00 TS 7.50000 127.600 main 110 110 __OO__________ -1 7.20000 127.800 1 29 1003 7.80000 127.400 TD 25 1002 6 133
1976028N10130 1976 9 WP MM NOT_NAMED 1976-01-30 09:00:00 TS 7.34869 127.847 main 132 132 __PP__________ -1 7.07746 127.990 1 29 1003 7.61992 127.705 TD 25 1002 6 113
1976028N10130 1976 9 WP MM NOT_NAMED 1976-01-30 12:00:00 TS 7.25000 128.200 main 176 176 __OO__________ -1 7.00000 128.300 1 29 1003 7.50000 128.100 TD 25 1002 8 106
1976028N10130 1976 9 WP MM NOT_NAMED 1976-01-30 15:00:00 TS 7.11751 128.663 main 232 232 __PP__________ -1 6.89248 128.705 1 29 1003 7.34253 128.620 TD 25 1002 10 104
1976028N10130 1976 9 WP MM NOT_NAMED 1976-01-30 18:00:00 TS 7.00000 129.200 main 289 289 __OO__________ -1 6.80000 129.200 1 29 1003 7.20000 129.200 TD 25 1002 11 100
1976028N10130 1976 9 WP MM NOT_NAMED 1976-01-30 21:00:00 TS 6.91749 129.754 main 356 356 __PP__________ -1 6.74246 129.727 1 29 1003 7.09253 129.780 TD 27 1001 11 98
1976028N10130 1976 9 WP MM NOT_NAMED 1976-01-31 00:00:00 TS 6.85000 130.300 main 411 411 __OO__________ -1 6.70000 130.300 1 29 1003 7.00000 130.300 TD 30 1000 10 100
1976028N10130 1976 9 WP MM NOT_NAMED 1976-01-31 03:00:00 TS 6.74861 130.764 main 468 468 __PP__________ -1 6.61245 130.893 1 29 1002 6.88477 130.635 TD 30 1000 10 99
1976028N10130 1976 9 WP MM NOT_NAMED 1976-01-31 06:00:00 TS 6.70000 131.250 main 523 523 __OO__________ -1 6.60000 131.500 1 29 1001 6.80000 131.000 TD 30 1000 11 90
1976028N10130 1976 9 WP MM NOT_NAMED 1976-01-31 09:00:00 TS 6.73998 131.849 main 578 578 __PP__________ -1 6.73240 132.093 1 29 1001 6.74756 131.605 TD 30 1000 13 81
1976028N10130 1976 9 WP MM NOT_NAMED 1976-01-31 12:00:00 TS 6.90000 132.500 main 648 648 __OO__________ -1 7.00000 132.700 1 29 1001 6.80000 132.300 TD 30 1000 14 70
1976028N10130 1976 9 WP MM NOT_NAMED 1976-01-31 15:00:00 TS 7.20987 133.135 main 717 717 __PP__________ -1 7.39229 133.312 1 29 1001 7.02744 132.957 TD 30 1000 14 63
1976028N10130 1976 9 WP MM NOT_NAMED 1976-01-31 18:00:00 TS 7.55000 133.800 main 794 794 __OO__________ -1 7.80000 134.000 1 29 1001 7.30000 133.600 TD 30 1000 15 68
1976028N10130 1976 9 WP MM NOT_NAMED 1976-01-31 21:00:00 TS 7.76874 134.521 main 871 871 __PP__________ -1 8.10262 134.842 1 26 1001 7.43486 134.200 TD 30 1000 15 74
1976028N10130 1976 9 WP MM NOT_NAMED 1976-02-01 00:00:00 TS 7.95000 135.250 main 956 949 __OO__________ -1 8.30000 135.700 1 23 1001 7.60000 134.800 TD 30 1000 15 74
1976028N10130 1976 9 WP MM NOT_NAMED 1976-02-01 03:00:00 TS 8.16868 135.951 main 998 998 __PP__________ -1 8.39489 136.453 1 23 1001 7.94247 135.450 TD 30 1000 14 73
1976028N10130 1976 9 WP MM NOT_NAMED 1976-02-01 06:00:00 TS 8.35000 136.600 main 1025 1025 __OO__________ -1 8.40000 137.100 1 23 1001 8.30000 136.100 TD 30 1000 12 77
1976028N10130 1976 9 WP MM NOT_NAMED 1976-02-01 09:00:00 TS 8.44361 137.176 main 1035 1035 __PP__________ -1 8.36486 137.645 1 21 1001 8.52237 136.708 TD 27 1001 11 82
1976028N10130 1976 9 WP MM NOT_NAMED 1976-02-01 12:00:00 TS 8.50000 137.700 main 1056 1056 __OO__________ -1 8.30000 138.100 0 19 1002 8.70000 137.300 TD 25 1002 10 82
1976028N10130 1976 9 WP MM NOT_NAMED 1976-02-01 15:00:00 TS 8.58219 138.178 main 1081 1081 __PP__________ -1 8.24995 138.530 0 19 1002 8.91444 137.825 TD 25 1002 10 81
1976028N10130 1976 9 WP MM NOT_NAMED 1976-02-01 18:00:00 TS 8.65000 138.700 main 1108 1108 __OO__________ -1 8.20000 138.900 0 19 1002 9.10000 138.500 TD 25 1002 12 85
1976028N10130 1976 9 WP MM NOT_NAMED 1976-02-01 21:00:00 TS 8.68632 139.363 main 1133 1133 __PP__________ -1 8.14990 139.200 0 19 1002 9.22274 139.525 TD 25 1002 14 88
1976028N10130 1976 9 WP MM NOT_NAMED 1976-02-02 00:00:00 TS 8.70000 140.100 main 1161 1161 __OO__________ -1 8.10000 139.500 0 19 1002 9.30000 140.700 TD 25 1002 15 89
1976028N10130 1976 9 WP MM NOT_NAMED 1976-02-02 03:00:00 TS 8.70273 140.850 main 1189 1189 __PP__________ -1 8.05013 139.875 0 19 1002 9.35533 141.825 TD 25 1003 15 90
1976028N10130 1976 9 WP MM NOT_NAMED 1976-02-02 06:00:00 TS 8.70000 141.600 main 1214 __OO__________ -1 8.00000 140.300 0 19 1003 9.40000 142.900 TD 25 1004 15 90

Digital Typhoon Data and Search

About IBTrACS Database

This database is a web-friendly format of International Best Track Archive for Climate Stewardship (IBTrACS), a global best track data archive curated by NOAA dating back to 1842.

Updated: 2021-12-01